createdAt,value
2018-05-06T00:02:11.911Z,15.40
2018-05-06T00:04:39.423Z,15.40
2018-05-06T00:07:07.719Z,15.30
2018-05-06T00:09:35.310Z,15.30
2018-05-06T00:12:02.864Z,15.30
2018-05-06T00:14:30.475Z,15.20
2018-05-06T00:16:57.991Z,15.20
2018-05-06T00:19:25.557Z,15.10
2018-05-06T00:21:53.051Z,15.00
2018-05-06T00:24:20.563Z,15.00
2018-05-06T00:26:48.093Z,14.90
2018-05-06T00:29:15.622Z,14.90
2018-05-06T00:31:43.889Z,14.90
2018-05-06T00:34:12.162Z,14.80
2018-05-06T00:36:39.774Z,14.80
2018-05-06T00:39:07.289Z,14.70
2018-05-06T00:41:34.834Z,14.70
2018-05-06T00:44:02.372Z,14.60
2018-05-06T00:46:29.955Z,14.70
2018-05-06T00:48:57.415Z,14.60
2018-05-06T00:51:24.952Z,14.60
2018-05-06T00:53:52.469Z,14.50
2018-05-06T00:56:19.991Z,14.40
2018-05-06T00:58:47.527Z,14.30
2018-05-06T01:01:15.825Z,14.40
2018-05-06T01:03:43.362Z,14.40
2018-05-06T01:06:10.897Z,14.40
2018-05-06T01:08:38.457Z,14.30
2018-05-06T01:11:05.981Z,14.20
2018-05-06T01:13:33.543Z,14.20
2018-05-06T01:16:01.040Z,14.10
2018-05-06T01:18:28.553Z,14.10
2018-05-06T01:20:56.099Z,14.10
2018-05-06T01:23:23.598Z,14.00
2018-05-06T01:25:51.881Z,14.00
2018-05-06T01:28:19.410Z,14.00
2018-05-06T01:30:46.902Z,14.00
2018-05-06T01:35:49.101Z,13.90
2018-05-06T01:38:16.647Z,13.90
2018-05-06T01:40:44.922Z,13.90
2018-05-06T01:43:12.462Z,13.90
2018-05-06T01:45:40.002Z,13.80
2018-05-06T01:48:07.519Z,13.90
2018-05-06T01:50:35.064Z,13.80
2018-05-06T01:53:02.578Z,13.70
2018-05-06T01:55:30.086Z,13.70
2018-05-06T01:57:57.659Z,13.70
2018-05-06T02:00:25.220Z,13.70
2018-05-06T02:02:52.725Z,13.60
2018-05-06T02:05:20.268Z,13.60
2018-05-06T02:07:47.791Z,13.60
2018-05-06T02:10:15.301Z,13.60
2018-05-06T02:12:42.852Z,13.60
2018-05-06T02:15:10.373Z,13.50
2018-05-06T02:17:38.658Z,13.50
2018-05-06T02:20:06.187Z,13.50
2018-05-06T02:22:33.711Z,13.50
2018-05-06T02:25:01.257Z,13.50
2018-05-06T02:27:28.870Z,13.40
2018-05-06T02:29:56.391Z,13.40
2018-05-06T02:32:23.914Z,13.30
2018-05-06T02:34:51.488Z,13.30
2018-05-06T02:37:18.992Z,13.30
2018-05-06T02:39:46.508Z,13.20
2018-05-06T02:42:14.032Z,13.20
2018-05-06T02:44:41.667Z,13.20
2018-05-06T02:47:09.168Z,13.10
2018-05-06T02:49:37.472Z,13.10
2018-05-06T02:52:04.997Z,13.10
2018-05-06T02:54:32.542Z,13.10
2018-05-06T02:57:00.048Z,13.10
2018-05-06T02:59:27.565Z,13.00
2018-05-06T03:01:55.095Z,12.90
2018-05-06T03:04:22.611Z,12.90
2018-05-06T03:06:50.890Z,12.80
2018-05-06T03:09:18.414Z,12.80
2018-05-06T03:11:45.942Z,12.80
2018-05-06T03:14:13.450Z,12.70
2018-05-06T03:16:40.996Z,12.70
2018-05-06T03:19:08.511Z,12.70
2018-05-06T03:21:36.032Z,12.60
2018-05-06T03:24:03.592Z,12.60
2018-05-06T03:26:31.171Z,12.50
2018-05-06T03:28:58.679Z,12.50
2018-05-06T03:31:26.226Z,12.50
2018-05-06T03:33:53.732Z,12.50
2018-05-06T03:36:21.871Z,12.50
2018-05-06T03:38:49.411Z,12.40
2018-05-06T03:41:16.925Z,12.40
2018-05-06T03:43:44.422Z,12.40
2018-05-06T03:46:12.733Z,12.30
2018-05-06T03:48:40.254Z,12.30
2018-05-06T03:51:07.831Z,12.30
2018-05-06T03:53:35.415Z,12.20
2018-05-06T03:59:26.904Z,12.10
2018-05-06T04:04:55.953Z,12.10
2018-05-06T04:07:23.458Z,12.10
2018-05-06T04:09:50.995Z,12.10
2018-05-06T04:12:18.510Z,12.00
2018-05-06T04:14:46.047Z,12.10
2018-05-06T04:17:13.552Z,12.00
2018-05-06T04:19:41.154Z,12.00
2018-05-06T04:22:08.689Z,12.00
2018-05-06T04:24:36.227Z,12.00
2018-05-06T04:27:04.493Z,12.00
2018-05-06T04:29:32.029Z,11.90
2018-05-06T04:31:59.542Z,12.00
2018-05-06T04:34:27.052Z,12.00
2018-05-06T04:36:54.611Z,12.10
2018-05-06T04:39:22.173Z,12.10
2018-05-06T04:41:49.766Z,12.00
2018-05-06T04:44:17.391Z,12.00
2018-05-06T04:46:44.849Z,12.00
2018-05-06T04:49:12.358Z,12.10
2018-05-06T04:54:13.942Z,12.10
2018-05-06T04:56:41.479Z,12.10
2018-05-06T04:59:09.757Z,12.20
2018-05-06T05:01:38.022Z,12.20
2018-05-06T05:04:06.361Z,12.30
2018-05-06T05:06:33.878Z,12.30
2018-05-06T05:09:01.382Z,12.30
2018-05-06T05:11:28.912Z,12.40
2018-05-06T05:13:56.422Z,12.40
2018-05-06T05:16:23.954Z,12.50
2018-05-06T05:18:51.461Z,12.60
2018-05-06T05:21:18.971Z,12.60
2018-05-06T05:23:46.503Z,12.60
2018-05-06T05:26:14.047Z,12.70
2018-05-06T05:28:42.314Z,12.90
2018-05-06T05:31:09.862Z,12.80
2018-05-06T05:33:37.417Z,13.00
2018-05-06T05:36:05.036Z,13.00
2018-05-06T05:38:32.572Z,13.10
2018-05-06T05:41:00.855Z,13.30
2018-05-06T05:43:28.393Z,13.30
2018-05-06T05:45:55.901Z,13.40
2018-05-06T05:48:23.428Z,13.50
2018-05-06T05:50:50.967Z,13.50
2018-05-06T05:53:18.535Z,13.70
2018-05-06T05:55:46.052Z,13.80
2018-05-06T05:58:13.990Z,13.90
2018-05-06T06:00:41.534Z,14.00
2018-05-06T06:03:09.082Z,14.10
2018-05-06T06:05:36.628Z,14.30
2018-05-06T06:08:04.155Z,14.50
2018-05-06T06:10:31.683Z,14.60
2018-05-06T06:12:59.993Z,14.80
2018-05-06T06:15:27.524Z,14.80
2018-05-06T06:17:55.823Z,15.10
2018-05-06T06:20:23.378Z,15.10
2018-05-06T06:22:50.930Z,15.30
2018-05-06T06:25:18.474Z,15.40
2018-05-06T06:27:46.008Z,15.60
2018-05-06T06:30:13.539Z,15.70
2018-05-06T06:32:41.062Z,16.10
2018-05-06T06:35:08.978Z,16.30
2018-05-06T06:37:36.683Z,16.50
2018-05-06T06:40:04.231Z,16.70
2018-05-06T06:42:31.837Z,16.80
2018-05-06T06:44:59.387Z,17.20
2018-05-06T06:47:27.696Z,17.30
2018-05-06T06:49:55.270Z,17.30
2018-05-06T06:52:22.784Z,17.30
2018-05-06T06:54:51.057Z,17.50
2018-05-06T06:57:18.699Z,17.50
2018-05-06T06:59:46.262Z,17.60
2018-05-06T07:02:13.819Z,17.60
2018-05-06T07:04:41.353Z,17.90
2018-05-06T07:07:08.870Z,18.00
2018-05-06T07:09:36.434Z,18.30
2018-05-06T07:12:03.939Z,18.40
2018-05-06T07:14:31.454Z,18.70
2018-05-06T07:16:59.766Z,18.60
2018-05-06T07:19:27.273Z,18.60
2018-05-06T07:21:55.562Z,18.70
2018-05-06T07:24:23.139Z,18.70
2018-05-06T07:26:51.452Z,19.20
2018-05-06T07:29:18.959Z,19.10
2018-05-06T07:31:47.287Z,19.20
2018-05-06T07:34:14.795Z,19.20
2018-05-06T07:36:43.077Z,19.40
2018-05-06T07:39:10.623Z,19.40
2018-05-06T07:41:38.240Z,19.60
2018-05-06T07:44:05.705Z,20.10
2018-05-06T07:46:33.257Z,20.30
2018-05-06T07:49:01.689Z,20.40
2018-05-06T07:51:29.221Z,20.60
2018-05-06T07:53:56.756Z,20.70
2018-05-06T07:56:24.258Z,20.80
2018-05-06T07:58:51.845Z,21.00
2018-05-06T08:01:19.319Z,21.20
2018-05-06T08:03:47.654Z,21.50
2018-05-06T08:06:15.208Z,21.50
2018-05-06T08:08:42.759Z,21.70
2018-05-06T08:11:10.281Z,22.00
2018-05-06T08:13:37.797Z,22.10
2018-05-06T08:16:05.326Z,22.20
2018-05-06T08:18:32.881Z,22.20
2018-05-06T08:21:00.392Z,22.10
2018-05-06T08:23:27.929Z,22.40
2018-05-06T08:25:55.447Z,22.50
2018-05-06T08:28:23.874Z,22.60
2018-05-06T08:30:51.405Z,22.50
2018-05-06T08:33:18.995Z,22.40
2018-05-06T08:35:47.098Z,22.70
2018-05-06T08:38:15.396Z,23.50
2018-05-06T08:40:42.915Z,23.40
2018-05-06T08:43:10.468Z,23.60
2018-05-06T08:45:38.677Z,23.80
2018-05-06T08:48:06.190Z,24.20
2018-05-06T08:50:33.779Z,24.50
2018-05-06T08:53:02.262Z,24.40
2018-05-06T08:58:23.015Z,24.60
2018-05-06T09:00:50.566Z,24.60
2018-05-06T09:03:18.881Z,24.90
2018-05-06T09:05:46.407Z,24.90
2018-05-06T09:08:14.698Z,24.70
2018-05-06T09:10:42.217Z,24.70
2018-05-06T09:13:09.768Z,24.60
2018-05-06T09:15:37.278Z,24.80
2018-05-06T09:18:04.839Z,24.80
2018-05-06T09:20:32.357Z,24.90
2018-05-06T09:22:59.881Z,25.00
2018-05-06T09:25:27.465Z,25.50
2018-05-06T09:27:54.998Z,25.40
2018-05-06T09:30:22.517Z,25.40
2018-05-06T09:32:50.042Z,25.60
2018-05-06T09:35:17.582Z,26.00
2018-05-06T09:37:45.165Z,26.40
2018-05-06T09:40:12.660Z,26.70
2018-05-06T09:42:40.202Z,26.60
2018-05-06T09:45:07.740Z,26.10
2018-05-06T09:47:35.316Z,26.50
2018-05-06T09:50:02.826Z,27.00
2018-05-06T09:52:31.100Z,27.10
2018-05-06T09:54:59.403Z,27.40
2018-05-06T09:57:26.909Z,27.40
2018-05-06T09:59:54.431Z,27.20
2018-05-06T10:02:21.957Z,27.20
2018-05-06T10:04:50.252Z,26.80
2018-05-06T10:07:17.749Z,26.70
2018-05-06T10:09:45.318Z,26.90
2018-05-06T10:12:12.819Z,27.20
2018-05-06T10:14:40.396Z,27.60
2018-05-06T10:17:07.928Z,27.80
2018-05-06T10:19:36.217Z,27.90
2018-05-06T10:22:04.531Z,27.60
2018-05-06T10:24:32.051Z,27.60
2018-05-06T10:26:59.557Z,27.70
2018-05-06T10:29:27.111Z,27.80
2018-05-06T10:31:54.637Z,27.90
2018-05-06T10:34:22.156Z,27.80
2018-05-06T10:36:49.695Z,28.20
2018-05-06T10:39:17.224Z,28.60
2018-05-06T10:41:44.751Z,28.70
2018-05-06T10:44:12.482Z,28.90
2018-05-06T10:46:39.994Z,28.70
2018-05-06T10:49:08.898Z,29.50
2018-05-06T10:51:36.391Z,29.40
2018-05-06T10:54:03.901Z,29.10
2018-05-06T10:56:31.417Z,28.60
2018-05-06T10:58:58.966Z,28.30
2018-05-06T11:01:26.506Z,28.80
2018-05-06T11:03:54.781Z,29.10
2018-05-06T11:06:22.319Z,29.10
2018-05-06T11:08:50.622Z,28.40
2018-05-06T11:11:18.242Z,28.40
2018-05-06T11:13:45.801Z,28.60
2018-05-06T11:16:13.362Z,29.20
2018-05-06T11:18:40.870Z,29.50
2018-05-06T11:21:08.424Z,29.70
2018-05-06T11:23:35.979Z,30.00
2018-05-06T11:26:03.532Z,30.30
2018-05-06T11:28:31.858Z,29.40
2018-05-06T11:30:59.378Z,29.40
2018-05-06T11:33:27.705Z,29.30
2018-05-06T11:35:55.211Z,29.20
2018-05-06T11:38:23.525Z,29.20
2018-05-06T11:40:51.053Z,29.20
2018-05-06T11:43:18.613Z,29.40
2018-05-06T11:45:46.131Z,29.10
2018-05-06T11:48:13.662Z,29.00
2018-05-06T11:50:41.192Z,29.40
2018-05-06T11:53:09.481Z,29.20
2018-05-06T11:55:37.080Z,29.20
2018-05-06T11:58:04.594Z,29.00
2018-05-06T12:00:32.869Z,29.00
2018-05-06T12:03:00.460Z,29.00
2018-05-06T12:05:28.005Z,29.20
2018-05-06T12:07:55.552Z,29.50
2018-05-06T12:10:23.864Z,29.30
2018-05-06T12:12:51.379Z,29.30
2018-05-06T12:15:19.715Z,29.70
2018-05-06T12:17:47.241Z,29.70
2018-05-06T12:20:14.746Z,30.10
2018-05-06T12:22:42.303Z,29.80
2018-05-06T12:25:09.806Z,30.10
2018-05-06T12:27:37.340Z,29.40
2018-05-06T12:30:04.904Z,29.20
2018-05-06T12:32:32.435Z,29.00
2018-05-06T12:34:59.938Z,29.50
2018-05-06T12:37:28.260Z,29.00
2018-05-06T12:39:55.758Z,29.00
2018-05-06T12:42:23.299Z,29.10
2018-05-06T12:44:50.838Z,29.80
2018-05-06T12:47:19.139Z,30.60
2018-05-06T12:49:46.720Z,30.60
2018-05-06T12:52:14.276Z,30.40
2018-05-06T12:54:41.790Z,30.00
2018-05-06T12:57:09.297Z,29.90
2018-05-06T12:59:36.833Z,30.10
2018-05-06T13:02:04.395Z,30.30
2018-05-06T13:04:31.907Z,30.70
2018-05-06T13:06:59.451Z,30.70
2018-05-06T13:09:26.989Z,30.20
2018-05-06T13:11:54.494Z,30.40
2018-05-06T13:14:22.020Z,30.70
2018-05-06T13:16:49.546Z,30.40
2018-05-06T13:19:17.061Z,30.50
2018-05-06T13:21:44.595Z,30.40
2018-05-06T13:24:12.153Z,30.60
2018-05-06T13:26:39.717Z,30.10
2018-05-06T13:29:07.273Z,30.00
2018-05-06T13:31:34.795Z,29.80
2018-05-06T13:34:02.422Z,29.70
2018-05-06T13:36:29.938Z,29.80
2018-05-06T13:38:57.489Z,29.80
2018-05-06T13:41:25.056Z,29.80
2018-05-06T13:43:53.142Z,30.00
2018-05-06T13:46:20.604Z,29.60
2018-05-06T13:48:48.120Z,29.30
2018-05-06T13:51:16.430Z,29.80
2018-05-06T13:53:43.966Z,29.70
2018-05-06T13:56:11.515Z,29.50
2018-05-06T13:58:39.808Z,29.60
2018-05-06T14:01:07.307Z,29.60
2018-05-06T14:03:34.850Z,29.50
2018-05-06T14:06:02.378Z,29.80
2018-05-06T14:08:29.881Z,29.80
2018-05-06T14:10:58.208Z,29.80
2018-05-06T14:13:25.717Z,29.60
2018-05-06T14:15:53.303Z,29.90
2018-05-06T14:18:20.835Z,29.70
2018-05-06T14:20:48.410Z,29.60
2018-05-06T14:23:15.959Z,29.60
2018-05-06T14:25:43.477Z,29.70
2018-05-06T14:28:11.758Z,29.80
2018-05-06T14:30:40.078Z,29.60
2018-05-06T14:33:07.701Z,29.50
2018-05-06T14:35:35.209Z,29.50
2018-05-06T14:38:02.720Z,29.50
2018-05-06T14:40:30.276Z,29.70
2018-05-06T14:42:57.819Z,29.60
2018-05-06T14:45:25.330Z,29.30
2018-05-06T14:48:05.210Z,29.00
2018-05-06T14:50:32.716Z,29.00
2018-05-06T14:53:00.271Z,29.00
2018-05-06T14:55:28.574Z,28.60
2018-05-06T14:57:56.097Z,28.60
2018-05-06T15:00:24.394Z,28.70
2018-05-06T15:02:52.693Z,28.40
2018-05-06T15:05:20.203Z,28.40
2018-05-06T15:07:47.762Z,28.60
2018-05-06T15:10:15.343Z,28.40
2018-05-06T15:12:42.845Z,28.40
2018-05-06T15:15:10.440Z,28.20
2018-05-06T15:17:37.966Z,28.30
2018-05-06T15:20:05.482Z,28.30
2018-05-06T15:22:33.766Z,28.40
2018-05-06T15:25:01.816Z,28.40
2018-05-06T15:27:29.346Z,28.30
2018-05-06T15:29:56.874Z,28.00
2018-05-06T15:32:24.389Z,27.80
2018-05-06T15:34:52.204Z,27.90
2018-05-06T15:37:19.735Z,27.90
2018-05-06T15:39:47.627Z,27.90
2018-05-06T15:42:15.155Z,27.90
2018-05-06T15:44:42.675Z,27.80
2018-05-06T15:47:11.025Z,27.70
2018-05-06T15:49:38.878Z,27.70
2018-05-06T15:52:07.246Z,27.70
2018-05-06T15:54:35.826Z,27.70
2018-05-06T15:57:03.540Z,27.70
2018-05-06T15:59:31.051Z,27.50
2018-05-06T16:05:00.352Z,27.30
2018-05-06T16:07:27.925Z,27.30
2018-05-06T16:09:55.430Z,27.40
2018-05-06T16:12:22.944Z,27.30
2018-05-06T16:14:50.479Z,27.30
2018-05-06T16:17:17.977Z,27.40
2018-05-06T16:19:45.560Z,27.30
2018-05-06T16:22:13.862Z,27.00
2018-05-06T16:24:41.369Z,27.00
2018-05-06T16:27:08.886Z,27.00
2018-05-06T16:29:36.458Z,26.90
2018-05-06T16:32:03.975Z,26.90
2018-05-06T16:34:31.554Z,26.90
2018-05-06T16:36:59.062Z,26.90
2018-05-06T16:39:26.589Z,26.70
2018-05-06T16:41:54.171Z,26.70
2018-05-06T16:44:21.724Z,26.70
2018-05-06T16:46:49.236Z,26.60
2018-05-06T16:49:16.779Z,26.50
2018-05-06T16:51:44.326Z,26.50
2018-05-06T16:54:11.868Z,26.40
2018-05-06T16:56:39.409Z,26.30
2018-05-06T16:59:06.914Z,26.30
2018-05-06T17:01:34.442Z,26.30
2018-05-06T17:04:02.882Z,26.30
2018-05-06T17:06:31.169Z,26.30
2018-05-06T17:08:59.485Z,26.20
2018-05-06T17:11:27.058Z,26.20
2018-05-06T17:13:54.574Z,26.20
2018-05-06T17:16:22.892Z,26.10
2018-05-06T17:18:50.407Z,26.10
2018-05-06T17:21:17.921Z,26.10
2018-05-06T17:23:45.458Z,26.10
2018-05-06T17:26:12.977Z,26.00
2018-05-06T17:28:41.260Z,25.90
2018-05-06T17:31:08.799Z,25.90
2018-05-06T17:33:36.337Z,25.90
2018-05-06T17:36:04.613Z,25.70
2018-05-06T17:38:32.198Z,25.70
2018-05-06T17:40:59.714Z,25.60
2018-05-06T17:43:27.235Z,25.60
2018-05-06T17:45:55.551Z,25.50
2018-05-06T17:48:23.108Z,25.50
2018-05-06T17:50:50.630Z,25.50
2018-05-06T17:53:18.210Z,25.40
2018-05-06T17:55:45.821Z,25.50
2018-05-06T17:58:13.352Z,25.40
2018-05-06T18:00:40.983Z,25.30
2018-05-06T18:03:08.602Z,25.20
2018-05-06T18:05:36.126Z,25.20
2018-05-06T18:08:03.663Z,25.10
2018-05-06T18:10:31.714Z,25.00
2018-05-06T18:13:00.062Z,24.90
2018-05-06T18:15:27.612Z,24.90
2018-05-06T18:17:55.188Z,24.90
2018-05-06T18:20:23.126Z,24.90
2018-05-06T18:22:50.639Z,24.80
2018-05-06T18:25:18.164Z,24.70
2018-05-06T18:27:45.716Z,24.70
2018-05-06T18:30:13.443Z,24.70
2018-05-06T18:32:40.963Z,24.60
2018-05-06T18:35:08.512Z,24.50
2018-05-06T18:37:36.017Z,24.50
2018-05-06T18:40:03.549Z,24.40
2018-05-06T18:42:31.072Z,24.30
2018-05-06T18:44:58.622Z,24.30
2018-05-06T18:47:26.912Z,24.20
2018-05-06T18:49:54.496Z,24.10
2018-05-06T18:52:22.094Z,24.10
2018-05-06T18:54:49.594Z,24.00
2018-05-06T18:57:17.908Z,23.80
2018-05-06T18:59:45.459Z,23.80
2018-05-06T19:02:12.962Z,23.70
2018-05-06T19:04:40.519Z,23.60
2018-05-06T19:07:08.059Z,23.60
2018-05-06T19:09:35.603Z,23.50
2018-05-06T19:12:04.088Z,23.50
2018-05-06T19:14:31.636Z,23.40
2018-05-06T19:16:59.241Z,23.30
2018-05-06T19:19:27.463Z,23.20
2018-05-06T19:21:55.749Z,23.10
2018-05-06T19:24:23.294Z,23.10
2018-05-06T19:26:51.586Z,23.00
2018-05-06T19:29:19.109Z,23.00
2018-05-06T19:31:46.635Z,22.90
2018-05-06T19:34:14.155Z,22.90
2018-05-06T19:36:41.689Z,22.90
2018-05-06T19:39:09.209Z,22.80
2018-05-06T19:41:36.717Z,22.70
2018-05-06T19:44:04.306Z,22.60
2018-05-06T19:46:31.850Z,22.50
2018-05-06T19:48:59.410Z,22.50
2018-05-06T19:51:26.910Z,22.40
2018-05-06T19:53:54.439Z,22.40
2018-05-06T19:56:21.962Z,22.30
2018-05-06T19:58:50.994Z,22.20
2018-05-06T20:01:18.507Z,22.20
2018-05-06T20:03:46.081Z,22.20
2018-05-06T20:06:13.600Z,22.10
2018-05-06T20:08:41.179Z,22.10
2018-05-06T20:11:08.738Z,22.00
2018-05-06T20:13:36.897Z,22.00
2018-05-06T20:16:04.402Z,21.90
2018-05-06T20:18:32.053Z,21.90
2018-05-06T20:20:59.537Z,21.80
2018-05-06T20:23:27.083Z,21.80
2018-05-06T20:25:54.630Z,21.70
2018-05-06T20:28:22.203Z,21.70
2018-05-06T20:30:49.734Z,21.70
2018-05-06T20:33:17.629Z,21.60
2018-05-06T20:35:45.256Z,21.50
2018-05-06T20:38:13.716Z,21.40
2018-05-06T20:40:41.251Z,21.40
2018-05-06T20:43:09.536Z,21.30
2018-05-06T20:45:37.924Z,21.30
2018-05-06T20:48:05.483Z,21.30
2018-05-06T20:50:33.766Z,21.20
2018-05-06T20:53:01.288Z,21.20
2018-05-06T20:55:28.829Z,21.20
2018-05-06T20:57:56.363Z,21.10
2018-05-06T21:00:23.949Z,21.10
2018-05-06T21:02:51.473Z,21.00
2018-05-06T21:05:19.810Z,20.90
2018-05-06T21:07:47.388Z,21.00
2018-05-06T21:10:14.900Z,20.90
2018-05-06T21:12:42.401Z,20.80
2018-05-06T21:15:09.981Z,20.80
2018-05-06T21:17:38.608Z,20.60
2018-05-06T21:20:06.126Z,20.60
2018-05-06T21:22:34.428Z,20.60
2018-05-06T21:25:02.075Z,20.60
2018-05-06T21:27:29.662Z,20.60
2018-05-06T21:29:57.166Z,20.50
2018-05-06T21:32:24.697Z,20.40
2018-05-06T21:34:52.233Z,20.40
2018-05-06T21:37:19.762Z,20.40
2018-05-06T21:39:47.297Z,20.30
2018-05-06T21:42:14.815Z,20.20
2018-05-06T21:44:42.936Z,20.20
2018-05-06T21:47:10.494Z,20.10
2018-05-06T21:49:38.026Z,19.90
2018-05-06T21:52:05.562Z,19.90
2018-05-06T21:54:33.871Z,19.80
2018-05-06T21:57:01.461Z,19.70
2018-05-06T21:59:29.001Z,19.70
2018-05-06T22:01:56.530Z,19.70
2018-05-06T22:04:24.046Z,19.60
2018-05-06T22:06:51.578Z,19.50
2018-05-06T22:09:19.092Z,19.50
2018-05-06T22:11:46.604Z,19.50
2018-05-06T22:14:14.150Z,19.40
2018-05-06T22:16:41.732Z,19.30
2018-05-06T22:19:09.247Z,19.30
2018-05-06T22:21:36.798Z,19.20
2018-05-06T22:24:04.447Z,19.20
2018-05-06T22:26:31.977Z,19.10
2018-05-06T22:28:59.482Z,19.10
2018-05-06T22:31:27.015Z,19.00
2018-05-06T22:33:54.581Z,19.00
2018-05-06T22:36:22.090Z,18.90
2018-05-06T22:38:49.675Z,18.90
2018-05-06T22:41:17.158Z,18.90
2018-05-06T22:43:44.663Z,18.80
2018-05-06T22:46:12.199Z,18.80
2018-05-06T22:48:40.305Z,18.70
2018-05-06T22:51:07.815Z,18.70
2018-05-06T22:53:35.351Z,18.60
2018-05-06T22:56:02.865Z,18.50
2018-05-06T22:58:31.129Z,18.30
2018-05-06T23:00:58.673Z,18.30
2018-05-06T23:03:26.179Z,18.20
2018-05-06T23:05:54.470Z,18.20
2018-05-06T23:08:22.003Z,18.10
2018-05-06T23:10:49.507Z,18.00
2018-05-06T23:13:17.027Z,18.00
2018-05-06T23:15:44.568Z,17.90
2018-05-06T23:18:12.125Z,17.90
2018-05-06T23:20:40.488Z,17.80
2018-05-06T23:23:08.033Z,17.80
2018-05-06T23:25:35.563Z,17.80
2018-05-06T23:28:03.658Z,17.70
2018-05-06T23:30:31.148Z,17.70
2018-05-06T23:32:58.697Z,17.60
2018-05-06T23:35:26.190Z,17.50
2018-05-06T23:37:53.760Z,17.50
2018-05-06T23:40:21.326Z,17.40
2018-05-06T23:42:48.870Z,17.40
2018-05-06T23:45:17.145Z,17.30
2018-05-06T23:47:44.706Z,17.30
2018-05-06T23:50:12.982Z,17.20
2018-05-06T23:52:40.497Z,17.10
2018-05-06T23:55:08.140Z,17.10
2018-05-06T23:57:35.665Z,17.10
